sensor_id;sensor_type;location;lat;lon;timestamp;pressure;altitude;pressure_sealevel;temperature;humidity
73455;BME280;61690;51.824;6.306;2022-12-07T00:01:06;101624.84;;;15.67;49.40
73455;BME280;61690;51.824;6.306;2022-12-07T00:03:32;101611.72;;;15.67;49.31
73455;BME280;61690;51.824;6.306;2022-12-07T00:05:59;101619.66;;;15.66;49.31
73455;BME280;61690;51.824;6.306;2022-12-07T00:08:24;101624.94;;;15.64;49.57
73455;BME280;61690;51.824;6.306;2022-12-07T00:10:49;101626.78;;;15.62;49.52
73455;BME280;61690;51.824;6.306;2022-12-07T00:13:15;101629.41;;;15.62;49.42
73455;BME280;61690;51.824;6.306;2022-12-07T00:15:40;101625.09;;;15.61;49.44
73455;BME280;61690;51.824;6.306;2022-12-07T00:18:05;101622.41;;;15.63;49.45
73455;BME280;61690;51.824;6.306;2022-12-07T00:20:31;101619.13;;;15.58;49.70
73455;BME280;61690;51.824;6.306;2022-12-07T00:22:56;101619.91;;;15.60;49.41
73455;BME280;61690;51.824;6.306;2022-12-07T00:25:22;101615.56;;;15.59;49.49
73455;BME280;61690;51.824;6.306;2022-12-07T00:27:47;101607.78;;;15.57;49.44
73455;BME280;61690;51.824;6.306;2022-12-07T00:30:13;101606.84;;;15.58;49.50
73455;BME280;61690;51.824;6.306;2022-12-07T00:32:38;101600.81;;;15.56;49.42
73455;BME280;61690;51.824;6.306;2022-12-07T00:35:04;101589.53;;;15.54;49.41
73455;BME280;61690;51.824;6.306;2022-12-07T00:37:29;101587.81;;;15.53;49.66
73455;BME280;61690;51.824;6.306;2022-12-07T00:39:54;101581.78;;;15.51;49.54
73455;BME280;61690;51.824;6.306;2022-12-07T00:42:20;101583.50;;;15.52;49.40
73455;BME280;61690;51.824;6.306;2022-12-07T00:44:45;101586.19;;;15.51;49.53
73455;BME280;61690;51.824;6.306;2022-12-07T00:47:10;101584.50;;;15.49;49.53
73455;BME280;61690;51.824;6.306;2022-12-07T00:49:35;101584.56;;;15.48;49.54
73455;BME280;61690;51.824;6.306;2022-12-07T00:52:01;101591.44;;;15.51;49.56
73455;BME280;61690;51.824;6.306;2022-12-07T00:54:26;101592.44;;;15.48;49.56
73455;BME280;61690;51.824;6.306;2022-12-07T00:56:51;101593.28;;;15.48;49.45
73455;BME280;61690;51.824;6.306;2022-12-07T00:59:17;101591.63;;;15.46;49.49
73455;BME280;61690;51.824;6.306;2022-12-07T01:01:42;101586.34;;;15.47;49.83
73455;BME280;61690;51.824;6.306;2022-12-07T01:04:07;101585.53;;;15.45;49.57
73455;BME280;61690;51.824;6.306;2022-12-07T01:06:33;101588.22;;;15.44;49.60
73455;BME280;61690;51.824;6.306;2022-12-07T01:08:59;101589.13;;;15.43;49.63
73455;BME280;61690;51.824;6.306;2022-12-07T01:11:27;101590.84;;;15.44;49.74
73455;BME280;61690;51.824;6.306;2022-12-07T01:13:54;101592.59;;;15.43;49.59
73455;BME280;61690;51.824;6.306;2022-12-07T01:16:21;101589.19;;;15.41;49.81
73455;BME280;61690;51.824;6.306;2022-12-07T01:18:49;101588.28;;;15.42;49.80
73455;BME280;61690;51.824;6.306;2022-12-07T01:21:17;101594.44;;;15.41;49.73
73455;BME280;61690;51.824;6.306;2022-12-07T01:23:43;101595.47;;;15.37;49.94
73455;BME280;61690;51.824;6.306;2022-12-07T01:26:14;101604.06;;;15.41;49.61
73455;BME280;61690;51.824;6.306;2022-12-07T01:28:40;101600.66;;;15.39;49.88
73455;BME280;61690;51.824;6.306;2022-12-07T01:31:14;101599.88;;;15.37;49.82
73455;BME280;61690;51.824;6.306;2022-12-07T01:33:41;101603.41;;;15.36;49.96
73455;BME280;61690;51.824;6.306;2022-12-07T01:36:19;101599.81;;;15.38;49.72
73455;BME280;61690;51.824;6.306;2022-12-07T01:38:50;101601.72;;;15.35;49.64
73455;BME280;61690;51.824;6.306;2022-12-07T01:41:17;101595.63;;;15.34;49.52
73455;BME280;61690;51.824;6.306;2022-12-07T01:44:19;101599.19;;;15.32;49.85
73455;BME280;61690;51.824;6.306;2022-12-07T01:46:53;101601.81;;;15.32;49.71
73455;BME280;61690;51.824;6.306;2022-12-07T01:52:20;101598.41;;;15.29;49.78
73455;BME280;61690;51.824;6.306;2022-12-07T01:54:51;101591.47;;;15.28;49.67
73455;BME280;61690;51.824;6.306;2022-12-07T01:57:17;101586.28;;;15.27;49.68
73455;BME280;61690;51.824;6.306;2022-12-07T01:59:45;101591.59;;;15.25;49.98
73455;BME280;61690;51.824;6.306;2022-12-07T02:02:18;101582.81;;;15.26;49.97
73455;BME280;61690;51.824;6.306;2022-12-07T02:04:45;101584.56;;;15.26;49.85
73455;BME280;61690;51.824;6.306;2022-12-07T02:07:10;101586.34;;;15.25;49.94
73455;BME280;61690;51.824;6.306;2022-12-07T02:09:36;101588.13;;;15.25;49.86
73455;BME280;61690;51.824;6.306;2022-12-07T02:12:02;101588.19;;;15.23;49.90
73455;BME280;61690;51.824;6.306;2022-12-07T02:14:27;101588.19;;;15.23;49.96
73455;BME280;61690;51.824;6.306;2022-12-07T02:25:42;101580.63;;;15.16;50.08
73455;BME280;61690;51.824;6.306;2022-12-07T02:30:47;101590.25;;;15.15;50.04
73455;BME280;61690;51.824;6.306;2022-12-07T02:35:46;101594.72;;;15.13;50.06
73455;BME280;61690;51.824;6.306;2022-12-07T02:38:22;101588.53;;;15.14;49.99
73455;BME280;61690;51.824;6.306;2022-12-07T02:40:53;101593.78;;;15.14;50.21
73455;BME280;61690;51.824;6.306;2022-12-07T02:43:24;101589.47;;;15.13;50.07
73455;BME280;61690;51.824;6.306;2022-12-07T02:45:52;101587.75;;;15.12;50.16
73455;BME280;61690;51.824;6.306;2022-12-07T02:48:18;101592.19;;;15.10;50.11
73455;BME280;61690;51.824;6.306;2022-12-07T02:50:48;101582.56;;;15.10;49.96
73455;BME280;61690;51.824;6.306;2022-12-07T02:53:34;101581.72;;;15.10;50.12
73455;BME280;61690;51.824;6.306;2022-12-07T02:56:07;101586.16;;;15.08;50.03
73455;BME280;61690;51.824;6.306;2022-12-07T03:01:55;101590.63;;;15.06;50.06
73455;BME280;61690;51.824;6.306;2022-12-07T03:04:37;101587.06;;;15.07;50.11
73455;BME280;61690;51.824;6.306;2022-12-07T03:10:56;101581.81;;;15.07;50.11
73455;BME280;61690;51.824;6.306;2022-12-07T03:13:39;101584.59;;;15.04;50.07
73455;BME280;61690;51.824;6.306;2022-12-07T03:18:49;101580.38;;;15.00;50.06
73455;BME280;61690;51.824;6.306;2022-12-07T03:21:19;101587.22;;;15.04;50.33
73455;BME280;61690;51.824;6.306;2022-12-07T03:23:48;101586.34;;;15.03;50.00
73455;BME280;61690;51.824;6.306;2022-12-07T03:26:17;101580.28;;;15.01;50.07
73455;BME280;61690;51.824;6.306;2022-12-07T03:28:51;101587.38;;;14.99;50.00
73455;BME280;61690;51.824;6.306;2022-12-07T03:31:22;101580.38;;;15.00;50.14
73455;BME280;61690;51.824;6.306;2022-12-07T03:34:12;101583.00;;;15.00;50.11
73455;BME280;61690;51.824;6.306;2022-12-07T03:37:00;101575.19;;;14.98;50.28
73455;BME280;61690;51.824;6.306;2022-12-07T03:39:50;101583.97;;;14.97;50.12
73455;BME280;61690;51.824;6.306;2022-12-07T03:42:21;101578.66;;;14.99;49.95
73455;BME280;61690;51.824;6.306;2022-12-07T03:44:47;101577.88;;;14.97;50.08
73455;BME280;61690;51.824;6.306;2022-12-07T03:47:16;101576.16;;;14.96;50.01
73455;BME280;61690;51.824;6.306;2022-12-07T03:49:52;101577.09;;;14.95;50.09
73455;BME280;61690;51.824;6.306;2022-12-07T03:57:50;101572.75;;;14.94;50.10
73455;BME280;61690;51.824;6.306;2022-12-07T04:00:17;101575.75;;;15.06;49.91
73455;BME280;61690;51.824;6.306;2022-12-07T04:02:43;101570.72;;;15.22;49.56
73455;BME280;61690;51.824;6.306;2022-12-07T04:05:09;101575.22;;;15.41;49.19
73455;BME280;61690;51.824;6.306;2022-12-07T04:07:34;101571.84;;;15.59;48.71
73455;BME280;61690;51.824;6.306;2022-12-07T04:10:00;101566.91;;;15.74;48.13
73455;BME280;61690;51.824;6.306;2022-12-07T04:12:25;101567.19;;;15.88;47.81
73455;BME280;61690;51.824;6.306;2022-12-07T04:14:50;101561.59;;;15.96;47.93
73455;BME280;61690;51.824;6.306;2022-12-07T04:17:15;101564.66;;;16.05;47.67
73455;BME280;61690;51.824;6.306;2022-12-07T04:19:41;101563.44;;;16.13;47.47
73455;BME280;61690;51.824;6.306;2022-12-07T04:22:06;101565.94;;;16.16;47.63
73455;BME280;61690;51.824;6.306;2022-12-07T04:24:32;101564.81;;;16.21;47.64
73455;BME280;61690;51.824;6.306;2022-12-07T04:26:58;101572.47;;;16.26;47.50
73455;BME280;61690;51.824;6.306;2022-12-07T04:29:25;101576.53;;;16.33;47.18
73455;BME280;61690;51.824;6.306;2022-12-07T04:31:51;101569.31;;;16.38;47.03
73455;BME280;61690;51.824;6.306;2022-12-07T04:34:16;101564.97;;;16.37;47.36
73455;BME280;61690;51.824;6.306;2022-12-07T04:36:42;101566.47;;;16.43;47.19
73455;BME280;61690;51.824;6.306;2022-12-07T04:39:17;101568.75;;;16.51;46.64
73455;BME280;61690;51.824;6.306;2022-12-07T04:41:43;101568.50;;;16.57;46.87
73455;BME280;61690;51.824;6.306;2022-12-07T04:44:14;101568.19;;;16.63;46.61
73455;BME280;61690;51.824;6.306;2022-12-07T04:46:40;101562.88;;;16.64;46.61
73455;BME280;61690;51.824;6.306;2022-12-07T04:49:05;101566.13;;;16.70;46.60
73455;BME280;61690;51.824;6.306;2022-12-07T04:51:30;101559.97;;;16.71;46.90
73455;BME280;61690;51.824;6.306;2022-12-07T04:53:56;101557.28;;;16.72;46.53
73455;BME280;61690;51.824;6.306;2022-12-07T04:56:22;101559.09;;;16.70;46.94
73455;BME280;61690;51.824;6.306;2022-12-07T04:58:48;101554.00;;;16.67;46.95
73455;BME280;61690;51.824;6.306;2022-12-07T05:01:16;101553.28;;;16.63;46.95
73455;BME280;61690;51.824;6.306;2022-12-07T05:03:41;101553.22;;;16.65;46.79
73455;BME280;61690;51.824;6.306;2022-12-07T05:06:08;101556.56;;;16.69;46.97
73455;BME280;61690;51.824;6.306;2022-12-07T05:08:34;101554.41;;;16.77;46.84
73455;BME280;61690;51.824;6.306;2022-12-07T05:11:00;101558.56;;;16.82;46.63
73455;BME280;61690;51.824;6.306;2022-12-07T05:13:25;101554.88;;;16.87;46.41
73455;BME280;61690;51.824;6.306;2022-12-07T05:15:51;101558.91;;;16.94;46.61
73455;BME280;61690;51.824;6.306;2022-12-07T05:18:16;101552.56;;;16.98;46.41
73455;BME280;61690;51.824;6.306;2022-12-07T05:20:42;101552.44;;;17.01;46.19
73455;BME280;61690;51.824;6.306;2022-12-07T05:23:07;101554.84;;;17.05;46.10
73455;BME280;61690;51.824;6.306;2022-12-07T05:25:33;101557.41;;;17.07;46.14
73455;BME280;61690;51.824;6.306;2022-12-07T05:27:58;101553.75;;;17.10;46.17
73455;BME280;61690;51.824;6.306;2022-12-07T05:30:24;101550.13;;;17.12;46.08
73455;BME280;61690;51.824;6.306;2022-12-07T05:32:50;101556.06;;;17.16;46.25
73455;BME280;61690;51.824;6.306;2022-12-07T05:35:29;101556.78;;;17.19;45.87
73455;BME280;61690;51.824;6.306;2022-12-07T05:37:55;101550.50;;;17.22;45.97
73455;BME280;61690;51.824;6.306;2022-12-07T05:40:20;101556.47;;;17.25;45.92
73455;BME280;61690;51.824;6.306;2022-12-07T05:42:46;101554.53;;;17.29;46.15
73455;BME280;61690;51.824;6.306;2022-12-07T05:45:11;101556.19;;;17.32;45.95
73455;BME280;61690;51.824;6.306;2022-12-07T05:47:37;101549.94;;;17.34;46.08
73455;BME280;61690;51.824;6.306;2022-12-07T05:50:03;101543.91;;;17.32;46.02
73455;BME280;61690;51.824;6.306;2022-12-07T05:52:30;101550.63;;;17.38;45.92
73455;BME280;61690;51.824;6.306;2022-12-07T05:54:55;101548.00;;;17.38;45.63
73455;BME280;61690;51.824;6.306;2022-12-07T05:57:20;101547.94;;;17.39;45.76
73455;BME280;61690;51.824;6.306;2022-12-07T05:59:46;101547.94;;;17.39;45.77
73455;BME280;61690;51.824;6.306;2022-12-07T06:02:13;101543.50;;;17.40;45.68
73455;BME280;61690;51.824;6.306;2022-12-07T06:04:44;101543.66;;;17.37;46.37
73455;BME280;61690;51.824;6.306;2022-12-07T06:07:11;101542.88;;;17.35;46.39
73455;BME280;61690;51.824;6.306;2022-12-07T06:09:37;101544.91;;;17.30;46.30
73455;BME280;61690;51.824;6.306;2022-12-07T06:12:03;101546.84;;;17.26;46.19
73455;BME280;61690;51.824;6.306;2022-12-07T06:14:47;101547.97;;;17.20;46.51
73455;BME280;61690;51.824;6.306;2022-12-07T06:17:13;101541.19;;;17.16;46.45
73455;BME280;61690;51.824;6.306;2022-12-07T06:19:38;101539.59;;;17.12;46.86
73455;BME280;61690;51.824;6.306;2022-12-07T06:22:04;101546.88;;;17.07;46.92
73455;BME280;61690;51.824;6.306;2022-12-07T06:24:36;101559.38;;;17.02;47.19
73455;BME280;61690;51.824;6.306;2022-12-07T06:27:01;101548.16;;;16.98;47.07
73455;BME280;61690;51.824;6.306;2022-12-07T06:29:27;101545.78;;;16.94;46.76
73455;BME280;61690;51.824;6.306;2022-12-07T06:31:52;101551.16;;;16.91;47.06
73455;BME280;61690;51.824;6.306;2022-12-07T06:34:19;101546.97;;;16.87;47.00
73455;BME280;61690;51.824;6.306;2022-12-07T06:36:46;101548.06;;;16.82;47.44
73455;BME280;61690;51.824;6.306;2022-12-07T06:39:16;101554.41;;;16.77;47.44
73455;BME280;61690;51.824;6.306;2022-12-07T06:41:41;101551.06;;;16.73;47.40
73455;BME280;61690;51.824;6.306;2022-12-07T06:44:07;101554.78;;;16.69;47.31
73455;BME280;61690;51.824;6.306;2022-12-07T06:46:32;101548.88;;;16.64;47.32
73455;BME280;61690;51.824;6.306;2022-12-07T06:48:58;101551.66;;;16.61;47.37
73455;BME280;61690;51.824;6.306;2022-12-07T06:51:23;101557.13;;;16.56;47.78
73455;BME280;61690;51.824;6.306;2022-12-07T06:53:48;101551.16;;;16.53;47.58
73455;BME280;61690;51.824;6.306;2022-12-07T06:56:14;101554.00;;;16.48;47.75
73455;BME280;61690;51.824;6.306;2022-12-07T06:58:39;101554.06;;;16.46;47.53
73455;BME280;61690;51.824;6.306;2022-12-07T07:01:13;101554.22;;;16.43;48.03
73455;BME280;61690;51.824;6.306;2022-12-07T07:03:39;101554.34;;;16.40;47.73
73455;BME280;61690;51.824;6.306;2022-12-07T07:06:05;101558.88;;;16.37;48.02
73455;BME280;61690;51.824;6.306;2022-12-07T07:08:31;101557.31;;;16.33;47.98
73455;BME280;61690;51.824;6.306;2022-12-07T07:10:56;101551.28;;;16.31;48.20
73455;BME280;61690;51.824;6.306;2022-12-07T07:13:22;101562.78;;;16.28;48.07
73455;BME280;61690;51.824;6.306;2022-12-07T07:15:47;101561.97;;;16.26;48.05
73455;BME280;61690;51.824;6.306;2022-12-07T07:18:12;101559.50;;;16.23;48.33
73455;BME280;61690;51.824;6.306;2022-12-07T07:20:38;101558.91;;;16.16;48.33
73455;BME280;61690;51.824;6.306;2022-12-07T07:23:04;101572.81;;;16.18;48.14
73455;BME280;61690;51.824;6.306;2022-12-07T07:25:29;101572.25;;;16.12;48.13
73455;BME280;61690;51.824;6.306;2022-12-07T07:27:55;101570.69;;;16.07;48.22
73455;BME280;61690;51.824;6.306;2022-12-07T07:30:20;101572.47;;;16.07;48.32
73455;BME280;61690;51.824;6.306;2022-12-07T07:32:46;101577.00;;;16.03;48.60
73455;BME280;61690;51.824;6.306;2022-12-07T07:35:11;101575.44;;;15.99;48.71
73455;BME280;61690;51.824;6.306;2022-12-07T07:37:39;101576.34;;;15.98;48.74
73455;BME280;61690;51.824;6.306;2022-12-07T07:40:05;101578.06;;;15.99;48.49
73455;BME280;61690;51.824;6.306;2022-12-07T07:42:30;101569.53;;;15.94;48.91
73455;BME280;61690;51.824;6.306;2022-12-07T07:44:55;101573.06;;;15.93;48.76
73455;BME280;61690;51.824;6.306;2022-12-07T07:47:21;101571.50;;;15.89;48.66
73455;BME280;61690;51.824;6.306;2022-12-07T07:49:46;101568.13;;;15.85;49.04
73455;BME280;61690;51.824;6.306;2022-12-07T07:52:11;101563.88;;;15.83;48.78
73455;BME280;61690;51.824;6.306;2022-12-07T07:54:36;101576.22;;;15.81;48.84
73455;BME280;61690;51.824;6.306;2022-12-07T07:57:02;101571.88;;;15.80;48.84
73455;BME280;61690;51.824;6.306;2022-12-07T07:59:27;101571.19;;;15.76;49.03
73455;BME280;61690;51.824;6.306;2022-12-07T08:01:52;101571.19;;;15.76;49.48
73455;BME280;61690;51.824;6.306;2022-12-07T08:04:18;101570.44;;;15.73;48.99
73455;BME280;61690;51.824;6.306;2022-12-07T08:06:43;101569.63;;;15.71;49.24
73455;BME280;61690;51.824;6.306;2022-12-07T08:09:08;101576.78;;;15.67;49.00
73455;BME280;61690;51.824;6.306;2022-12-07T08:11:34;101575.91;;;15.66;48.92
73455;BME280;61690;51.824;6.306;2022-12-07T08:14:01;101589.03;;;15.66;49.24
73455;BME280;61690;51.824;6.306;2022-12-07T08:16:26;101582.16;;;15.64;49.33
73455;BME280;61690;51.824;6.306;2022-12-07T08:18:51;101583.13;;;15.61;49.15
73455;BME280;61690;51.824;6.306;2022-12-07T08:21:17;101588.44;;;15.60;49.28
73455;BME280;61690;51.824;6.306;2022-12-07T08:23:43;101585.88;;;15.58;49.22
73455;BME280;61690;51.824;6.306;2022-12-07T08:26:13;101587.66;;;15.58;49.34
73455;BME280;61690;51.824;6.306;2022-12-07T08:28:39;101590.34;;;15.56;49.31
73455;BME280;61690;51.824;6.306;2022-12-07T08:31:11;101586.91;;;15.54;49.32
73455;BME280;61690;51.824;6.306;2022-12-07T08:33:37;101586.13;;;15.52;49.50
73455;BME280;61690;51.824;6.306;2022-12-07T08:36:08;101593.16;;;15.52;49.38
73455;BME280;61690;51.824;6.306;2022-12-07T08:38:35;101591.44;;;15.51;49.17
73455;BME280;61690;51.824;6.306;2022-12-07T08:41:01;101595.09;;;15.46;49.44
73455;BME280;61690;51.824;6.306;2022-12-07T08:43:26;101590.75;;;15.45;49.41
73455;BME280;61690;51.824;6.306;2022-12-07T08:46:14;101594.25;;;15.46;49.41
73455;BME280;61690;51.824;6.306;2022-12-07T08:48:49;101593.47;;;15.44;49.37
73455;BME280;61690;51.824;6.306;2022-12-07T08:51:17;101593.53;;;15.42;49.44
73455;BME280;61690;51.824;6.306;2022-12-07T08:53:43;101590.06;;;15.42;49.37
73455;BME280;61690;51.824;6.306;2022-12-07T08:56:10;101596.22;;;15.41;49.53
73455;BME280;61690;51.824;6.306;2022-12-07T08:58:35;101592.78;;;15.39;49.56
73455;BME280;61690;51.824;6.306;2022-12-07T09:01:03;101589.34;;;15.38;49.70
73455;BME280;61690;51.824;6.306;2022-12-07T09:03:28;101592.13;;;15.34;49.54
73455;BME280;61690;51.824;6.306;2022-12-07T09:05:54;101596.47;;;15.35;49.41
73455;BME280;61690;51.824;6.306;2022-12-07T09:08:19;101602.66;;;15.32;49.71
73455;BME280;61690;51.824;6.306;2022-12-07T09:10:45;101596.56;;;15.32;49.51
73455;BME280;61690;51.824;6.306;2022-12-07T09:13:11;101600.13;;;15.31;49.73
73455;BME280;61690;51.824;6.306;2022-12-07T09:15:36;101596.72;;;15.28;49.33
73455;BME280;61690;51.824;6.306;2022-12-07T09:18:02;101591.47;;;15.28;49.67
73455;BME280;61690;51.824;6.306;2022-12-07T09:20:27;101588.75;;;15.30;49.70
73455;BME280;61690;51.824;6.306;2022-12-07T09:22:52;101593.31;;;15.26;49.54
73455;BME280;61690;51.824;6.306;2022-12-07T09:25:17;101588.91;;;15.27;49.58
73455;BME280;61690;51.824;6.306;2022-12-07T09:27:43;101598.66;;;15.23;49.74
73455;BME280;61690;51.824;6.306;2022-12-07T09:30:08;101594.25;;;15.24;49.83
73455;BME280;61690;51.824;6.306;2022-12-07T09:32:33;101600.25;;;15.27;49.71
73455;BME280;61690;51.824;6.306;2022-12-07T09:34:59;101599.50;;;15.24;49.60
73455;BME280;61690;51.824;6.306;2022-12-07T09:37:24;101597.81;;;15.23;49.57
73455;BME280;61690;51.824;6.306;2022-12-07T09:39:49;101592.63;;;15.21;49.64
73455;BME280;61690;51.824;6.306;2022-12-07T09:42:36;101596.22;;;15.19;50.04
73455;BME280;61690;51.824;6.306;2022-12-07T09:45:06;101590.06;;;15.20;49.55
73455;BME280;61690;51.824;6.306;2022-12-07T09:47:32;101588.44;;;15.17;49.90
73455;BME280;61690;51.824;6.306;2022-12-07T09:50:04;101590.13;;;15.18;49.72
73455;BME280;61690;51.824;6.306;2022-12-07T09:52:30;101581.41;;;15.18;49.81
73455;BME280;61690;51.824;6.306;2022-12-07T09:54:57;101588.44;;;15.17;49.62
73455;BME280;61690;51.824;6.306;2022-12-07T09:57:30;101590.25;;;15.15;49.72
73455;BME280;61690;51.824;6.306;2022-12-07T10:00:00;101589.38;;;15.15;49.77
73455;BME280;61690;51.824;6.306;2022-12-07T10:02:39;101587.63;;;15.15;49.48
73455;BME280;61690;51.824;6.306;2022-12-07T10:05:10;101574.66;;;15.12;49.97
73455;BME280;61690;51.824;6.306;2022-12-07T10:07:37;101572.06;;;15.10;49.86
73455;BME280;61690;51.824;6.306;2022-12-07T10:10:04;101572.97;;;15.11;49.79
73455;BME280;61690;51.824;6.306;2022-12-07T10:12:54;101571.13;;;15.13;49.69
73455;BME280;61690;51.824;6.306;2022-12-07T10:15:20;101569.41;;;15.12;49.76
73455;BME280;61690;51.824;6.306;2022-12-07T10:17:50;101572.13;;;15.09;49.64
73455;BME280;61690;51.824;6.306;2022-12-07T10:20:20;101572.06;;;15.10;49.58
73455;BME280;61690;51.824;6.306;2022-12-07T10:22:55;101573.06;;;15.08;49.74
73455;BME280;61690;51.824;6.306;2022-12-07T10:25:22;101570.50;;;15.06;49.85
73455;BME280;61690;51.824;6.306;2022-12-07T10:27:58;101569.66;;;15.06;49.96
73455;BME280;61690;51.824;6.306;2022-12-07T10:30:23;101560.88;;;15.07;49.99
73455;BME280;61690;51.824;6.306;2022-12-07T10:32:49;101564.47;;;15.04;49.77
73455;BME280;61690;51.824;6.306;2022-12-07T10:35:24;101563.63;;;15.04;49.90
73455;BME280;61690;51.824;6.306;2022-12-07T10:37:51;101560.03;;;15.06;49.92
73455;BME280;61690;51.824;6.306;2022-12-07T10:40:30;101557.47;;;15.05;49.83
73455;BME280;61690;51.824;6.306;2022-12-07T10:43:04;101555.75;;;15.04;49.89
73455;BME280;61690;51.824;6.306;2022-12-07T10:45:30;101546.97;;;15.05;49.93
73455;BME280;61690;51.824;6.306;2022-12-07T10:56:18;101540.16;;;15.01;49.72
73455;BME280;61690;51.824;6.306;2022-12-07T10:59:01;101537.69;;;14.98;49.99
73455;BME280;61690;51.824;6.306;2022-12-07T11:01:45;101531.63;;;14.96;49.76
73455;BME280;61690;51.824;6.306;2022-12-07T11:07:02;101529.81;;;14.98;49.71
73455;BME280;61690;51.824;6.306;2022-12-07T11:12:43;101530.72;;;14.97;49.82
73455;BME280;61690;51.824;6.306;2022-12-07T11:15:23;101522.81;;;14.98;49.89
73455;BME280;61690;51.824;6.306;2022-12-07T11:17:53;101519.41;;;14.96;49.93
73455;BME280;61690;51.824;6.306;2022-12-07T11:23:13;101512.38;;;14.97;49.73
73455;BME280;61690;51.824;6.306;2022-12-07T11:25:54;101512.50;;;14.94;49.71
73455;BME280;61690;51.824;6.306;2022-12-07T11:33:46;101501.09;;;14.95;49.78
73455;BME280;61690;51.824;6.306;2022-12-07T11:36:33;101502.94;;;14.93;50.00
73455;BME280;61690;51.824;6.306;2022-12-07T11:39:06;101501.16;;;14.93;50.00
73455;BME280;61690;51.824;6.306;2022-12-07T11:41:37;101498.59;;;14.92;49.79
73455;BME280;61690;51.824;6.306;2022-12-07T11:46:46;101490.84;;;14.90;49.82
73455;BME280;61690;51.824;6.306;2022-12-07T11:50:05;101490.84;;;14.90;49.81
73455;BME280;61690;51.824;6.306;2022-12-07T11:52:56;101491.69;;;14.90;49.88
73455;BME280;61690;51.824;6.306;2022-12-07T11:55:45;101490.84;;;14.90;49.95
73455;BME280;61690;51.824;6.306;2022-12-07T12:01:15;101489.34;;;15.05;49.46
73455;BME280;61690;51.824;6.306;2022-12-07T12:06:43;101478.25;;;15.41;48.84
73455;BME280;61690;51.824;6.306;2022-12-07T12:09:17;101475.78;;;15.57;48.48
73455;BME280;61690;51.824;6.306;2022-12-07T12:14:52;101468.78;;;15.78;47.73
73455;BME280;61690;51.824;6.306;2022-12-07T12:22:23;101463.63;;;15.95;47.34
73455;BME280;61690;51.824;6.306;2022-12-07T12:24:53;101465.13;;;16.01;47.47
73455;BME280;61690;51.824;6.306;2022-12-07T12:27:32;101465.00;;;16.04;47.62
73455;BME280;61690;51.824;6.306;2022-12-07T12:30:01;101459.53;;;16.08;47.29
73455;BME280;61690;51.824;6.306;2022-12-07T12:32:40;101449.75;;;16.12;47.07
73455;BME280;61690;51.824;6.306;2022-12-07T12:35:32;101448.78;;;16.15;47.26
73455;BME280;61690;51.824;6.306;2022-12-07T12:38:25;101456.31;;;16.22;47.09
73455;BME280;61690;51.824;6.306;2022-12-07T12:40:52;101457.91;;;16.25;46.93
73455;BME280;61690;51.824;6.306;2022-12-07T12:51:41;101444.13;;;16.39;46.95
73455;BME280;61690;51.824;6.306;2022-12-07T12:57:07;101441.38;;;16.42;46.76
73455;BME280;61690;51.824;6.306;2022-12-07T12:59:36;101442.28;;;16.41;47.02
73455;BME280;61690;51.824;6.306;2022-12-07T13:02:08;101438.88;;;16.39;47.17
73455;BME280;61690;51.824;6.306;2022-12-07T13:13:01;101427.25;;;16.44;46.83
73455;BME280;61690;51.824;6.306;2022-12-07T13:15:51;101427.81;;;16.51;46.73
73455;BME280;61690;51.824;6.306;2022-12-07T13:23:51;101411.44;;;16.63;46.38
73455;BME280;61690;51.824;6.306;2022-12-07T13:26:38;101420.03;;;16.67;46.74
73455;BME280;61690;51.824;6.306;2022-12-07T13:29:19;101409.47;;;16.69;46.55
73455;BME280;61690;51.824;6.306;2022-12-07T13:31:53;101409.28;;;16.72;46.77
73455;BME280;61690;51.824;6.306;2022-12-07T13:34:36;101403.81;;;16.76;46.21
73455;BME280;61690;51.824;6.306;2022-12-07T13:37:28;101401.03;;;16.79;46.41
73455;BME280;61690;51.824;6.306;2022-12-07T13:40:12;101403.66;;;16.79;46.50
73455;BME280;61690;51.824;6.306;2022-12-07T13:42:41;101399.16;;;16.81;46.47
73455;BME280;61690;51.824;6.306;2022-12-07T13:45:25;101387.78;;;16.82;46.45
73455;BME280;61690;51.824;6.306;2022-12-07T13:48:36;101387.59;;;16.85;46.37
73455;BME280;61690;51.824;6.306;2022-12-07T13:51:01;101383.22;;;16.86;46.37
73455;BME280;61690;51.824;6.306;2022-12-07T13:53:27;101379.59;;;16.89;46.30
73455;BME280;61690;51.824;6.306;2022-12-07T13:55:59;101369.84;;;16.91;46.54
73455;BME280;61690;51.824;6.306;2022-12-07T13:58:27;101369.69;;;16.94;46.23
73455;BME280;61690;51.824;6.306;2022-12-07T14:00:54;101367.06;;;16.94;46.08
73455;BME280;61690;51.824;6.306;2022-12-07T14:03:26;101364.38;;;16.95;46.52
73455;BME280;61690;51.824;6.306;2022-12-07T14:06:05;101365.22;;;16.96;45.97
73455;BME280;61690;51.824;6.306;2022-12-07T14:08:31;101359.78;;;16.99;46.35
73455;BME280;61690;51.824;6.306;2022-12-07T14:10:57;101365.84;;;17.01;46.25
73455;BME280;61690;51.824;6.306;2022-12-07T14:13:36;101363.03;;;17.04;46.07
73455;BME280;61690;51.824;6.306;2022-12-07T14:16:24;101357.78;;;17.04;46.39
73455;BME280;61690;51.824;6.306;2022-12-07T14:18:55;101358.72;;;17.03;45.85
73455;BME280;61690;51.824;6.306;2022-12-07T14:21:24;101360.25;;;17.07;45.89
73455;BME280;61690;51.824;6.306;2022-12-07T14:26:38;101355.84;;;17.08;46.07
73455;BME280;61690;51.824;6.306;2022-12-07T14:29:22;101357.63;;;17.07;45.89
73455;BME280;61690;51.824;6.306;2022-12-07T14:31:54;101351.28;;;17.11;45.74
73455;BME280;61690;51.824;6.306;2022-12-07T14:34:21;101346.03;;;17.11;45.97
73455;BME280;61690;51.824;6.306;2022-12-07T14:36:46;101343.22;;;17.14;46.32
73455;BME280;61690;51.824;6.306;2022-12-07T14:39:12;101351.09;;;17.14;45.78
73455;BME280;61690;51.824;6.306;2022-12-07T14:41:37;101357.16;;;17.16;46.18